createdAt,value
2023-01-20T00:01:43.099Z,-2.92
2023-01-20T00:04:12.206Z,-2.83
2023-01-20T00:06:40.687Z,-2.85
2023-01-20T00:09:09.477Z,-2.85
2023-01-20T00:11:38.194Z,-2.85
2023-01-20T00:14:06.884Z,-2.80
2023-01-20T00:16:35.364Z,-2.74
2023-01-20T00:19:05.438Z,-2.71
2023-01-20T00:21:35.388Z,-2.73
2023-01-20T00:24:07.354Z,-2.77
2023-01-20T00:26:36.380Z,-2.68
2023-01-20T00:29:05.254Z,-2.64
2023-01-20T00:31:34.666Z,-2.61
2023-01-20T00:34:05.160Z,-2.59
2023-01-20T00:36:34.118Z,-2.58
2023-01-20T00:39:03.688Z,-2.54
2023-01-20T00:41:32.542Z,-2.49
2023-01-20T00:44:01.206Z,-2.47
2023-01-20T00:46:30.104Z,-2.57
2023-01-20T00:48:58.758Z,-2.56
2023-01-20T00:51:28.826Z,-2.50
2023-01-20T00:53:57.787Z,-2.48
2023-01-20T00:56:26.396Z,-2.45
2023-01-20T00:58:56.096Z,-2.47
2023-01-20T01:01:25.291Z,-2.46
2023-01-20T01:03:55.108Z,-2.42
2023-01-20T01:06:23.865Z,-2.38
2023-01-20T01:08:53.943Z,-2.36
2023-01-20T01:11:22.506Z,-2.41
2023-01-20T01:13:50.972Z,-2.43
2023-01-20T01:16:19.634Z,-2.47
2023-01-20T01:18:48.108Z,-2.47
2023-01-20T01:21:17.770Z,-2.49
2023-01-20T01:23:47.359Z,-2.43
2023-01-20T01:26:17.234Z,-2.45
2023-01-20T01:28:49.251Z,-2.38
2023-01-20T01:31:21.871Z,-2.38
2023-01-20T01:33:50.416Z,-2.38
2023-01-20T01:36:19.032Z,-2.42
2023-01-20T01:38:57.657Z,-2.50
2023-01-20T01:41:29.158Z,-2.48
2023-01-20T01:44:08.771Z,-2.57
2023-01-20T01:46:37.476Z,-2.53
2023-01-20T01:49:12.354Z,-2.51
2023-01-20T01:51:43.872Z,-2.54
2023-01-20T01:54:16.648Z,-2.55
2023-01-20T01:56:47.522Z,-2.44
2023-01-20T01:59:17.176Z,-2.51
2023-01-20T02:01:51.703Z,-2.49
2023-01-20T02:04:22.026Z,-2.51
2023-01-20T02:06:52.932Z,-2.57
2023-01-20T02:09:21.775Z,-2.66
2023-01-20T02:11:54.511Z,-2.75
2023-01-20T02:14:26.820Z,-2.68
2023-01-20T02:17:03.300Z,-2.71
2023-01-20T02:19:56.571Z,-2.66
2023-01-20T02:22:34.959Z,-2.67
2023-01-20T02:25:30.454Z,-2.76
2023-01-20T02:28:28.798Z,-2.77
2023-01-20T02:31:27.768Z,-2.69
2023-01-20T02:34:04.320Z,-2.62
2023-01-20T02:36:41.500Z,-2.55
2023-01-20T02:39:27.052Z,-2.60
2023-01-20T02:42:01.410Z,-2.51
2023-01-20T02:44:36.998Z,-2.55
2023-01-20T02:47:12.544Z,-2.54
2023-01-20T02:49:52.916Z,-2.55
2023-01-20T02:52:24.925Z,-2.51
2023-01-20T02:54:57.224Z,-2.51
2023-01-20T02:57:30.536Z,-2.60
2023-01-20T03:00:03.926Z,-2.64
2023-01-20T03:02:37.027Z,-2.71
2023-01-20T03:05:11.091Z,-2.68
2023-01-20T03:07:44.121Z,-2.75
2023-01-20T03:10:17.170Z,-2.69
2023-01-20T03:12:49.737Z,-2.68
2023-01-20T03:15:22.992Z,-2.70
2023-01-20T03:17:51.888Z,-2.69
2023-01-20T03:20:21.870Z,-2.66
2023-01-20T03:22:50.931Z,-2.66
2023-01-20T03:25:20.645Z,-2.64
2023-01-20T03:27:49.445Z,-2.57
2023-01-20T03:30:19.909Z,-2.51
2023-01-20T03:32:51.066Z,-2.51
2023-01-20T03:35:21.249Z,-2.41
2023-01-20T03:37:49.744Z,-2.40
2023-01-20T03:40:21.734Z,-2.60
2023-01-20T03:42:58.948Z,-2.47
2023-01-20T03:45:33.499Z,-2.48
2023-01-20T03:48:11.572Z,-2.49
2023-01-20T03:50:46.863Z,-2.55
2023-01-20T03:53:26.169Z,-2.60
2023-01-20T03:56:01.460Z,-2.69
2023-01-20T03:58:33.077Z,-2.76
2023-01-20T04:01:08.935Z,-2.78
2023-01-20T04:03:49.679Z,-2.74
2023-01-20T04:06:22.369Z,-2.61
2023-01-20T04:08:56.991Z,-2.65
2023-01-20T04:11:26.134Z,-2.68
2023-01-20T04:13:55.528Z,-2.69
2023-01-20T04:16:26.208Z,-2.69
2023-01-20T04:18:55.511Z,-2.68
2023-01-20T04:21:32.312Z,-2.76
2023-01-20T04:24:06.399Z,-2.74
2023-01-20T04:26:34.970Z,-2.66
2023-01-20T04:29:10.403Z,-2.70
2023-01-20T04:31:40.737Z,-2.60
2023-01-20T04:34:12.356Z,-2.61
2023-01-20T04:36:42.314Z,-2.56
2023-01-20T04:39:11.325Z,-2.52
2023-01-20T04:41:39.778Z,-2.50
2023-01-20T04:44:08.515Z,-2.50
2023-01-20T04:46:37.354Z,-2.47
2023-01-20T04:49:06.207Z,-2.36
2023-01-20T04:51:34.893Z,-2.29
2023-01-20T04:54:05.095Z,-2.37
2023-01-20T04:56:33.774Z,-2.32
2023-01-20T04:59:02.338Z,-2.28
2023-01-20T05:01:30.871Z,-2.38
2023-01-20T05:03:59.505Z,-2.38
2023-01-20T05:06:27.949Z,-2.35
2023-01-20T05:08:56.541Z,-2.33
2023-01-20T05:11:26.411Z,-2.26
2023-01-20T05:13:55.003Z,-2.29
2023-01-20T05:16:32.002Z,-2.17
2023-01-20T05:19:00.628Z,-2.20
2023-01-20T05:21:29.273Z,-2.25
2023-01-20T05:23:58.453Z,-2.23
2023-01-20T05:26:28.371Z,-2.13
2023-01-20T05:28:56.936Z,-2.15
2023-01-20T05:31:25.572Z,-2.11
2023-01-20T05:33:54.182Z,-2.14
2023-01-20T05:36:22.757Z,-2.19
2023-01-20T05:38:51.397Z,-2.17
2023-01-20T05:41:19.928Z,-2.18
2023-01-20T05:43:49.839Z,-2.15
2023-01-20T05:46:18.413Z,-2.09
2023-01-20T05:48:46.855Z,-2.06
2023-01-20T05:51:15.327Z,-2.10
2023-01-20T05:53:43.855Z,-2.08
2023-01-20T05:56:15.817Z,-2.06
2023-01-20T05:58:44.292Z,-2.04
2023-01-20T06:01:15.378Z,-2.12
2023-01-20T06:03:44.355Z,-2.04
2023-01-20T06:06:15.682Z,-1.97
2023-01-20T06:08:44.345Z,-1.95
2023-01-20T06:11:14.413Z,-1.90
2023-01-20T06:13:43.377Z,-1.90
2023-01-20T06:16:11.915Z,-1.92
2023-01-20T06:18:41.771Z,-1.89
2023-01-20T06:21:10.323Z,-1.79
2023-01-20T06:23:38.926Z,-1.78
2023-01-20T06:26:09.638Z,-1.76
2023-01-20T06:28:38.163Z,-1.80
2023-01-20T06:31:08.519Z,-1.81
2023-01-20T06:33:37.190Z,-1.79
2023-01-20T06:36:08.887Z,-1.73
2023-01-20T06:38:37.363Z,-1.72
2023-01-20T06:41:10.444Z,-1.68
2023-01-20T06:43:40.064Z,-1.64
2023-01-20T06:46:12.423Z,-1.59
2023-01-20T06:48:41.435Z,-1.61
2023-01-20T06:51:14.134Z,-1.63
2023-01-20T06:53:42.918Z,-1.67
2023-01-20T06:56:12.426Z,-1.62
2023-01-20T06:58:41.843Z,-1.57
2023-01-20T07:01:13.719Z,-1.60
2023-01-20T07:03:43.508Z,-1.55
2023-01-20T07:06:18.398Z,-1.52
2023-01-20T07:08:47.393Z,-1.52
2023-01-20T07:11:15.987Z,-1.48
2023-01-20T07:13:44.571Z,-1.45
2023-01-20T07:16:15.687Z,-1.42
2023-01-20T07:18:44.827Z,-1.40
2023-01-20T07:21:13.589Z,-1.39
2023-01-20T07:23:43.559Z,-1.42
2023-01-20T07:26:13.576Z,-1.34
2023-01-20T07:28:44.870Z,-1.37
2023-01-20T07:31:15.308Z,-1.34
2023-01-20T07:33:44.271Z,-1.29
2023-01-20T07:36:14.293Z,-1.29
2023-01-20T07:38:47.393Z,-1.40
2023-01-20T07:41:16.726Z,-1.31
2023-01-20T07:43:46.140Z,-1.36
2023-01-20T07:46:15.136Z,-1.29
2023-01-20T07:48:44.016Z,-1.26
2023-01-20T07:51:14.927Z,-1.26
2023-01-20T07:53:46.732Z,-1.29
2023-01-20T07:56:16.933Z,-1.28
2023-01-20T07:58:45.876Z,-1.23
2023-01-20T08:01:16.655Z,-1.11
2023-01-20T08:03:45.905Z,-1.20
2023-01-20T08:06:16.593Z,-1.12
2023-01-20T08:08:46.840Z,-1.05
2023-01-20T08:11:20.141Z,-0.99
2023-01-20T08:13:49.747Z,-0.94
2023-01-20T08:16:19.416Z,-0.97
2023-01-20T08:18:49.408Z,-0.85
2023-01-20T08:21:20.753Z,-0.97
2023-01-20T08:23:51.330Z,-0.91
2023-01-20T08:26:20.410Z,-0.92
2023-01-20T08:28:49.051Z,-1.00
2023-01-20T08:31:20.184Z,-1.05
2023-01-20T08:33:52.727Z,-1.03
2023-01-20T08:36:23.341Z,-1.17
2023-01-20T08:38:53.405Z,-1.20
2023-01-20T08:41:24.351Z,-1.15
2023-01-20T08:43:53.155Z,-1.08
2023-01-20T08:46:22.815Z,-1.09
2023-01-20T08:48:52.374Z,-1.08
2023-01-20T08:51:22.703Z,-1.05
2023-01-20T08:53:51.551Z,-1.06
2023-01-20T08:56:22.436Z,-1.10
2023-01-20T08:58:51.023Z,-1.09
2023-01-20T09:01:21.789Z,-1.06
2023-01-20T09:04:04.403Z,-1.07
2023-01-20T09:06:42.823Z,-0.88
2023-01-20T09:09:11.873Z,-0.85
2023-01-20T09:11:44.763Z,-0.77
2023-01-20T09:14:13.460Z,-0.60
2023-01-20T09:16:42.001Z,-0.62
2023-01-20T09:19:10.453Z,-0.41
2023-01-20T09:21:38.940Z,-0.19
2023-01-20T09:24:08.279Z,0.02
2023-01-20T09:26:41.557Z,0.06
2023-01-20T09:29:13.870Z,0.07
2023-01-20T09:31:45.297Z,0.02
2023-01-20T09:34:19.178Z,0.18
2023-01-20T09:36:51.222Z,0.20
2023-01-20T09:39:43.069Z,-0.09
2023-01-20T09:42:43.876Z,0.00
2023-01-20T09:45:24.961Z,0.10
2023-01-20T09:47:59.035Z,0.14
2023-01-20T09:50:55.542Z,0.16
2023-01-20T09:53:39.237Z,0.31
2023-01-20T09:56:13.343Z,0.15
2023-01-20T09:58:49.639Z,0.06
2023-01-20T10:01:30.457Z,0.39
2023-01-20T10:04:05.572Z,0.61
2023-01-20T10:06:38.158Z,0.74
2023-01-20T10:09:17.250Z,0.63
2023-01-20T10:11:49.548Z,0.74
2023-01-20T10:14:22.934Z,0.59
2023-01-20T10:16:59.235Z,0.63
2023-01-20T10:19:36.185Z,0.65
2023-01-20T10:22:11.190Z,0.68
2023-01-20T10:24:47.266Z,0.81
2023-01-20T10:27:15.694Z,0.81
2023-01-20T10:29:48.650Z,0.80
2023-01-20T10:32:27.549Z,0.58
2023-01-20T10:34:59.036Z,0.45
2023-01-20T10:37:28.335Z,0.75
2023-01-20T10:40:04.587Z,0.91
2023-01-20T10:42:34.602Z,0.77
2023-01-20T10:45:03.344Z,0.81
2023-01-20T10:47:44.993Z,0.78
2023-01-20T10:50:41.927Z,0.84
2023-01-20T10:53:40.252Z,0.71
2023-01-20T10:56:24.809Z,0.75
2023-01-20T10:58:53.399Z,0.93
2023-01-20T11:01:21.925Z,0.73
2023-01-20T11:03:52.322Z,0.60
2023-01-20T11:06:25.185Z,0.62
2023-01-20T11:08:53.983Z,0.71
2023-01-20T11:11:24.081Z,0.79
2023-01-20T11:13:53.704Z,0.96
2023-01-20T11:16:24.940Z,1.03
2023-01-20T11:19:00.349Z,1.17
2023-01-20T11:21:30.787Z,1.17
2023-01-20T11:24:00.323Z,1.34
2023-01-20T11:26:31.762Z,1.44
2023-01-20T11:29:02.343Z,1.44
2023-01-20T11:31:41.303Z,1.44
2023-01-20T11:34:27.606Z,1.82
2023-01-20T11:37:17.254Z,1.72
2023-01-20T11:39:57.905Z,1.87
2023-01-20T11:42:28.745Z,1.72
2023-01-20T11:45:15.357Z,1.88
2023-01-20T11:48:01.412Z,1.85
2023-01-20T11:50:33.884Z,1.78
2023-01-20T11:53:31.928Z,1.84
2023-01-20T11:56:02.992Z,2.16
2023-01-20T11:58:34.636Z,2.18
2023-01-20T12:01:05.954Z,2.28
2023-01-20T12:04:11.613Z,2.35
2023-01-20T12:06:51.819Z,2.03
2023-01-20T12:09:26.385Z,2.02
2023-01-20T12:11:58.886Z,1.71
2023-01-20T12:14:33.221Z,1.55
2023-01-20T12:17:15.386Z,1.67
2023-01-20T12:20:03.683Z,1.68
2023-01-20T12:22:42.368Z,1.64
2023-01-20T12:25:19.997Z,1.51
2023-01-20T12:27:52.211Z,1.84
2023-01-20T12:30:41.514Z,2.06
2023-01-20T12:33:20.609Z,1.72
2023-01-20T12:36:21.824Z,1.67
2023-01-20T12:39:13.795Z,1.71
2023-01-20T12:41:57.464Z,1.90
2023-01-20T12:44:31.814Z,2.44
2023-01-20T12:47:09.781Z,2.37
2023-01-20T12:49:50.986Z,2.24
2023-01-20T12:52:35.243Z,2.79
2023-01-20T12:55:18.853Z,2.88
2023-01-20T12:58:01.591Z,2.89
2023-01-20T13:00:52.556Z,3.07
2023-01-20T13:03:52.263Z,2.59
2023-01-20T13:06:41.318Z,2.64
2023-01-20T13:09:38.020Z,3.33
2023-01-20T13:12:23.489Z,3.25
2023-01-20T13:14:59.586Z,2.76
2023-01-20T13:17:37.725Z,2.76
2023-01-20T13:20:17.242Z,3.57
2023-01-20T13:22:46.115Z,3.40
2023-01-20T13:25:17.163Z,3.71
2023-01-20T13:27:51.081Z,4.10
2023-01-20T13:30:44.097Z,4.16
2023-01-20T13:33:17.840Z,3.72
2023-01-20T13:35:49.797Z,3.56
2023-01-20T13:38:21.780Z,3.69
2023-01-20T13:40:53.359Z,2.90
2023-01-20T13:43:37.194Z,3.05
2023-01-20T13:46:53.823Z,3.58
2023-01-20T13:49:30.663Z,3.41
2023-01-20T13:51:59.217Z,3.44
2023-01-20T13:54:48.680Z,3.26
2023-01-20T13:57:44.486Z,3.02
2023-01-20T14:00:17.444Z,3.15
2023-01-20T14:02:47.654Z,2.82
2023-01-20T14:05:26.866Z,3.12
2023-01-20T14:07:56.230Z,3.29
2023-01-20T14:10:25.045Z,3.60
2023-01-20T14:12:53.657Z,3.91
2023-01-20T14:15:34.048Z,3.93
2023-01-20T14:18:03.127Z,3.57
2023-01-20T14:20:32.585Z,3.28
2023-01-20T14:23:33.210Z,2.98
2023-01-20T14:26:05.370Z,2.94
2023-01-20T14:28:35.439Z,2.84
2023-01-20T14:31:25.048Z,2.88
2023-01-20T14:33:57.597Z,2.45
2023-01-20T14:36:30.404Z,2.12
2023-01-20T14:39:03.760Z,2.06
2023-01-20T14:41:47.948Z,2.12
2023-01-20T14:44:21.387Z,2.06
2023-01-20T14:46:54.004Z,1.94
2023-01-20T14:49:24.120Z,1.80
2023-01-20T14:51:53.617Z,1.75
2023-01-20T14:54:30.422Z,1.89
2023-01-20T14:57:00.255Z,1.80
2023-01-20T14:59:28.937Z,1.82
2023-01-20T15:02:06.371Z,1.86
2023-01-20T15:04:38.906Z,2.01
2023-01-20T15:07:07.542Z,1.97
2023-01-20T15:09:36.532Z,1.97
2023-01-20T15:12:35.423Z,1.88
2023-01-20T15:15:26.293Z,1.94
2023-01-20T15:18:18.764Z,1.81
2023-01-20T15:20:50.542Z,1.64
2023-01-20T15:23:25.015Z,1.40
2023-01-20T15:25:53.635Z,1.47
2023-01-20T15:28:28.535Z,1.35
2023-01-20T15:30:58.978Z,1.35
2023-01-20T15:33:29.119Z,1.24
2023-01-20T15:36:00.158Z,1.15
2023-01-20T15:38:32.321Z,1.23
2023-01-20T15:41:00.883Z,1.18
2023-01-20T15:43:29.600Z,1.22
2023-01-20T15:45:58.123Z,1.04
2023-01-20T15:48:26.678Z,0.94
2023-01-20T15:50:56.620Z,0.73
2023-01-20T15:53:25.238Z,0.50
2023-01-20T15:55:53.782Z,0.36
2023-01-20T15:58:25.638Z,0.32
2023-01-20T16:00:55.083Z,0.27
2023-01-20T16:03:24.566Z,0.27
2023-01-20T16:05:54.591Z,0.26
2023-01-20T16:08:30.620Z,0.19
2023-01-20T16:10:59.207Z,-0.03
2023-01-20T16:13:27.795Z,0.03
2023-01-20T16:15:56.611Z,-0.03
2023-01-20T16:18:25.212Z,-0.01
2023-01-20T16:20:54.233Z,-0.07
2023-01-20T16:23:24.165Z,-0.13
2023-01-20T16:25:52.674Z,-0.14
2023-01-20T16:28:24.373Z,-0.21
2023-01-20T16:30:58.032Z,-0.27
2023-01-20T16:33:28.182Z,-0.35
2023-01-20T16:35:57.311Z,-0.37
2023-01-20T16:38:27.279Z,-0.41
2023-01-20T16:41:03.644Z,-0.73
2023-01-20T16:43:32.323Z,-0.68
2023-01-20T16:46:01.397Z,-0.88
2023-01-20T16:48:30.504Z,-0.87
2023-01-20T16:51:04.584Z,-0.83
2023-01-20T16:53:34.950Z,-0.76
2023-01-20T16:56:03.471Z,-0.91
2023-01-20T16:58:32.008Z,-0.95
2023-01-20T17:01:00.517Z,-1.00
2023-01-20T17:03:29.264Z,-1.04
2023-01-20T17:05:58.861Z,-1.02
2023-01-20T17:08:27.386Z,-1.11
2023-01-20T17:10:57.569Z,-1.11
2023-01-20T17:13:26.313Z,-1.20
2023-01-20T17:15:54.852Z,-1.24
2023-01-20T17:18:23.591Z,-1.29
2023-01-20T17:20:52.084Z,-1.30
2023-01-20T17:23:20.673Z,-1.29
2023-01-20T17:25:51.983Z,-1.40
2023-01-20T17:28:22.310Z,-1.49
2023-01-20T17:30:50.976Z,-1.53
2023-01-20T17:33:19.615Z,-1.61
2023-01-20T17:35:56.468Z,-1.71
2023-01-20T17:38:25.222Z,-1.81
2023-01-20T17:40:54.618Z,-1.78
2023-01-20T17:43:24.560Z,-1.78
2023-01-20T17:45:53.183Z,-1.78
2023-01-20T17:48:21.719Z,-1.85
2023-01-20T17:50:50.523Z,-1.84
2023-01-20T17:53:19.151Z,-1.89
2023-01-20T17:55:47.775Z,-1.95
2023-01-20T17:58:16.256Z,-2.02
2023-01-20T18:00:46.270Z,-2.11
2023-01-20T18:03:14.751Z,-2.14
2023-01-20T18:05:43.289Z,-2.15
2023-01-20T18:08:13.668Z,-2.14
2023-01-20T18:10:42.024Z,-2.17
2023-01-20T18:13:10.504Z,-2.18
2023-01-20T18:15:42.661Z,-2.25
2023-01-20T18:18:12.708Z,-2.32
2023-01-20T18:20:41.182Z,-2.31
2023-01-20T18:23:09.688Z,-2.33
2023-01-20T18:25:38.210Z,-2.52
2023-01-20T18:28:06.683Z,-2.48
2023-01-20T18:30:35.258Z,-2.40
2023-01-20T18:33:03.993Z,-2.47
2023-01-20T18:35:33.800Z,-2.53
2023-01-20T18:38:02.715Z,-2.56
2023-01-20T18:40:36.378Z,-2.56
2023-01-20T18:43:04.980Z,-2.65
2023-01-20T18:45:33.549Z,-2.69
2023-01-20T18:48:02.264Z,-2.70
2023-01-20T18:50:31.072Z,-2.67
2023-01-20T18:53:01.119Z,-2.70
2023-01-20T18:55:31.620Z,-2.83
2023-01-20T18:58:00.360Z,-2.92
2023-01-20T19:00:32.068Z,-2.96
2023-01-20T19:03:03.924Z,-2.97
2023-01-20T19:05:32.772Z,-3.05
2023-01-20T19:08:02.881Z,-3.05
2023-01-20T19:10:31.531Z,-3.09
2023-01-20T19:13:00.241Z,-3.14
2023-01-20T19:15:28.773Z,-3.17
2023-01-20T19:17:57.407Z,-3.19
2023-01-20T19:20:25.924Z,-3.15
2023-01-20T19:22:54.433Z,-3.30
2023-01-20T19:25:29.475Z,-3.27
2023-01-20T19:27:58.119Z,-3.12
2023-01-20T19:30:26.650Z,-3.19
2023-01-20T19:32:55.220Z,-3.27
2023-01-20T19:35:23.713Z,-3.27
2023-01-20T19:37:52.198Z,-3.37
2023-01-20T19:40:20.804Z,-3.50
2023-01-20T19:42:52.505Z,-3.55
2023-01-20T19:45:21.013Z,-3.58
2023-01-20T19:47:49.560Z,-3.55
2023-01-20T19:50:19.175Z,-3.53
2023-01-20T19:52:47.728Z,-3.55
2023-01-20T19:55:16.290Z,-3.63
2023-01-20T19:57:44.863Z,-3.65
2023-01-20T20:00:15.912Z,-3.72
2023-01-20T20:02:45.045Z,-3.67
2023-01-20T20:05:14.151Z,-3.72
2023-01-20T20:07:42.715Z,-3.64
2023-01-20T20:10:11.279Z,-3.72
2023-01-20T20:12:39.856Z,-3.76
2023-01-20T20:15:09.719Z,-3.74
2023-01-20T20:17:39.551Z,-3.73
2023-01-20T20:20:09.075Z,-3.81
2023-01-20T20:22:37.638Z,-3.78
2023-01-20T20:25:09.877Z,-3.71
2023-01-20T20:27:39.728Z,-3.79
2023-01-20T20:30:09.479Z,-3.87
2023-01-20T20:32:39.408Z,-3.99
2023-01-20T20:35:08.537Z,-3.95
2023-01-20T20:37:37.184Z,-3.91
2023-01-20T20:40:06.584Z,-3.97
2023-01-20T20:42:35.169Z,-3.99
2023-01-20T20:45:03.670Z,-3.94
2023-01-20T20:47:33.385Z,-3.98
2023-01-20T20:50:03.216Z,-4.00
2023-01-20T20:52:34.959Z,-4.08
2023-01-20T20:55:03.469Z,-4.07
2023-01-20T20:57:33.106Z,-4.14
2023-01-20T21:00:01.644Z,-4.12
2023-01-20T21:02:30.253Z,-4.16
2023-01-20T21:04:58.688Z,-4.20
2023-01-20T21:07:28.526Z,-4.10
2023-01-20T21:09:58.388Z,-4.16
2023-01-20T21:12:26.893Z,-4.20
2023-01-20T21:14:55.354Z,-4.32
2023-01-20T21:17:23.938Z,-4.29
2023-01-20T21:19:52.576Z,-4.26
2023-01-20T21:22:21.288Z,-4.26
2023-01-20T21:24:51.068Z,-4.35
2023-01-20T21:27:19.565Z,-4.42
2023-01-20T21:29:48.019Z,-4.47
2023-01-20T21:32:16.470Z,-4.42
2023-01-20T21:34:44.963Z,-4.47
2023-01-20T21:37:13.578Z,-4.53
2023-01-20T21:39:42.100Z,-4.58
2023-01-20T21:42:12.003Z,-4.61
2023-01-20T21:44:42.410Z,-4.64
2023-01-20T21:47:11.594Z,-4.55
2023-01-20T21:49:54.037Z,-4.60
2023-01-20T21:52:44.017Z,-4.65
2023-01-20T21:55:15.849Z,-4.66
2023-01-20T21:57:46.868Z,-4.62
2023-01-20T22:00:17.157Z,-4.58
2023-01-20T22:02:46.147Z,-4.58
2023-01-20T22:05:17.899Z,-4.60
2023-01-20T22:07:47.816Z,-4.60
2023-01-20T22:10:16.998Z,-4.72
2023-01-20T22:12:46.959Z,-4.79
2023-01-20T22:15:15.537Z,-4.73
2023-01-20T22:17:44.055Z,-4.72
2023-01-20T22:20:13.003Z,-4.76
2023-01-20T22:22:41.409Z,-4.75
2023-01-20T22:25:10.525Z,-4.85
2023-01-20T22:27:39.008Z,-4.80
2023-01-20T22:30:10.522Z,-4.74
2023-01-20T22:32:39.045Z,-4.80
2023-01-20T22:35:08.013Z,-4.82
2023-01-20T22:37:36.422Z,-4.81
2023-01-20T22:40:06.140Z,-4.70
2023-01-20T22:42:35.347Z,-4.75
2023-01-20T22:45:03.941Z,-4.70
2023-01-20T22:47:33.758Z,-4.57
2023-01-20T22:50:02.162Z,-4.69
2023-01-20T22:52:30.638Z,-4.71
2023-01-20T22:54:59.141Z,-4.79
2023-01-20T22:57:27.609Z,-4.81
2023-01-20T22:59:56.123Z,-4.79
2023-01-20T23:02:24.552Z,-4.86
2023-01-20T23:04:54.435Z,-4.79
2023-01-20T23:07:22.935Z,-4.84
2023-01-20T23:09:51.456Z,-4.85
2023-01-20T23:12:19.941Z,-4.93
2023-01-20T23:15:00.480Z,-4.98
2023-01-20T23:17:30.883Z,-5.09
2023-01-20T23:20:00.648Z,-5.07
2023-01-20T23:22:30.091Z,-5.06
2023-01-20T23:24:58.619Z,-5.09
2023-01-20T23:27:27.239Z,-5.08
2023-01-20T23:29:55.718Z,-5.12
2023-01-20T23:32:24.190Z,-5.14
2023-01-20T23:34:52.680Z,-5.20
2023-01-20T23:37:22.546Z,-5.19
2023-01-20T23:39:52.526Z,-5.27
2023-01-20T23:42:21.068Z,-5.24
2023-01-20T23:44:49.635Z,-5.24
2023-01-20T23:47:18.213Z,-5.26
2023-01-20T23:49:46.736Z,-5.34
2023-01-20T23:52:15.398Z,-5.34
2023-01-20T23:54:45.173Z,-5.36
2023-01-20T23:57:13.642Z,-5.29
2023-01-20T23:59:42.081Z,-5.25
